sensor_id;sensor_type;location;lat;lon;timestamp;P1;durP1;ratioP1;P2;durP2;ratioP2
49858;SDS011;35756;52.346;13.622;2022-08-11T00:01:14;3.80;;;2.20;;
49858;SDS011;35756;52.346;13.622;2022-08-11T00:06:31;3.58;;;2.25;;
49858;SDS011;35756;52.346;13.622;2022-08-11T00:08:59;3.78;;;2.50;;
49858;SDS011;35756;52.346;13.622;2022-08-11T00:11:31;2.83;;;2.30;;
49858;SDS011;35756;52.346;13.622;2022-08-11T00:13:58;3.35;;;2.60;;
49858;SDS011;35756;52.346;13.622;2022-08-11T00:16:23;3.92;;;2.35;;
49858;SDS011;35756;52.346;13.622;2022-08-11T00:18:53;2.80;;;2.40;;
49858;SDS011;35756;52.346;13.622;2022-08-11T00:21:20;3.20;;;2.20;;
49858;SDS011;35756;52.346;13.622;2022-08-11T00:23:54;3.47;;;2.38;;
49858;SDS011;35756;52.346;13.622;2022-08-11T00:26:21;5.03;;;2.40;;
49858;SDS011;35756;52.346;13.622;2022-08-11T00:28:47;3.42;;;2.35;;
49858;SDS011;35756;52.346;13.622;2022-08-11T00:31:20;3.05;;;2.15;;
49858;SDS011;35756;52.346;13.622;2022-08-11T00:33:47;3.50;;;2.53;;
49858;SDS011;35756;52.346;13.622;2022-08-11T00:36:16;3.42;;;2.40;;
49858;SDS011;35756;52.346;13.622;2022-08-11T00:38:42;3.08;;;2.55;;
49858;SDS011;35756;52.346;13.622;2022-08-11T00:41:13;3.92;;;2.60;;
49858;SDS011;35756;52.346;13.622;2022-08-11T00:46:54;3.17;;;2.45;;
49858;SDS011;35756;52.346;13.622;2022-08-11T01:09:08;2.80;;;2.30;;
49858;SDS011;35756;52.346;13.622;2022-08-11T01:11:55;3.13;;;2.13;;
49858;SDS011;35756;52.346;13.622;2022-08-11T01:20:40;2.55;;;2.28;;
49858;SDS011;35756;52.346;13.622;2022-08-11T01:23:46;3.90;;;2.58;;
49858;SDS011;35756;52.346;13.622;2022-08-11T01:29:14;2.60;;;2.22;;
49858;SDS011;35756;52.346;13.622;2022-08-11T01:32:36;3.30;;;2.60;;
49858;SDS011;35756;52.346;13.622;2022-08-11T01:35:32;4.72;;;2.63;;
49858;SDS011;35756;52.346;13.622;2022-08-11T01:50:15;3.28;;;2.42;;
49858;SDS011;35756;52.346;13.622;2022-08-11T01:53:00;3.75;;;2.33;;
49858;SDS011;35756;52.346;13.622;2022-08-11T01:58:42;3.20;;;2.53;;
49858;SDS011;35756;52.346;13.622;2022-08-11T02:04:07;3.40;;;2.30;;
49858;SDS011;35756;52.346;13.622;2022-08-11T02:06:50;3.22;;;2.53;;
49858;SDS011;35756;52.346;13.622;2022-08-11T02:18:09;3.95;;;2.40;;
49858;SDS011;35756;52.346;13.622;2022-08-11T02:20:45;3.88;;;2.58;;
49858;SDS011;35756;52.346;13.622;2022-08-11T02:26:18;3.08;;;2.47;;
49858;SDS011;35756;52.346;13.622;2022-08-11T02:34:34;2.90;;;2.30;;
49858;SDS011;35756;52.346;13.622;2022-08-11T02:37:16;3.95;;;2.65;;
49858;SDS011;35756;52.346;13.622;2022-08-11T02:39:59;4.43;;;2.67;;
49858;SDS011;35756;52.346;13.622;2022-08-11T02:47:47;2.95;;;2.50;;
49858;SDS011;35756;52.346;13.622;2022-08-11T02:50:55;4.18;;;2.60;;
49858;SDS011;35756;52.346;13.622;2022-08-11T02:59:21;3.13;;;2.67;;
49858;SDS011;35756;52.346;13.622;2022-08-11T03:02:23;3.53;;;2.70;;
49858;SDS011;35756;52.346;13.622;2022-08-11T03:05:11;3.33;;;2.40;;
49858;SDS011;35756;52.346;13.622;2022-08-11T03:07:47;3.80;;;2.75;;
49858;SDS011;35756;52.346;13.622;2022-08-11T03:12:50;4.75;;;2.70;;
49858;SDS011;35756;52.346;13.622;2022-08-11T03:15:41;4.13;;;2.75;;
49858;SDS011;35756;52.346;13.622;2022-08-11T03:18:32;3.05;;;2.50;;
49858;SDS011;35756;52.346;13.622;2022-08-11T03:21:04;3.20;;;2.75;;
49858;SDS011;35756;52.346;13.622;2022-08-11T03:23:47;4.00;;;2.70;;
49858;SDS011;35756;52.346;13.622;2022-08-11T03:26:27;3.08;;;2.42;;
49858;SDS011;35756;52.346;13.622;2022-08-11T03:34:22;5.00;;;2.83;;
49858;SDS011;35756;52.346;13.622;2022-08-11T03:39:41;4.10;;;2.60;;
49858;SDS011;35756;52.346;13.622;2022-08-11T03:42:15;4.20;;;2.80;;
49858;SDS011;35756;52.346;13.622;2022-08-11T03:47:48;4.70;;;2.83;;
49858;SDS011;35756;52.346;13.622;2022-08-11T03:50:26;6.07;;;2.53;;
49858;SDS011;35756;52.346;13.622;2022-08-11T03:53:00;3.38;;;2.70;;
49858;SDS011;35756;52.346;13.622;2022-08-11T04:01:37;4.55;;;2.75;;
49858;SDS011;35756;52.346;13.622;2022-08-11T04:04:46;2.97;;;2.60;;
49858;SDS011;35756;52.346;13.622;2022-08-11T04:10:07;6.00;;;3.30;;
49858;SDS011;35756;52.346;13.622;2022-08-11T04:13:08;6.60;;;3.17;;
49858;SDS011;35756;52.346;13.622;2022-08-11T04:15:49;5.53;;;3.45;;
49858;SDS011;35756;52.346;13.622;2022-08-11T04:18:42;6.47;;;3.75;;
49858;SDS011;35756;52.346;13.622;2022-08-11T04:21:50;3.92;;;3.22;;
49858;SDS011;35756;52.346;13.622;2022-08-11T04:24:44;7.78;;;4.05;;
49858;SDS011;35756;52.346;13.622;2022-08-11T04:27:26;6.20;;;3.80;;
49858;SDS011;35756;52.346;13.622;2022-08-11T04:30:19;8.98;;;4.55;;
49858;SDS011;35756;52.346;13.622;2022-08-11T04:38:24;7.72;;;4.10;;
49858;SDS011;35756;52.346;13.622;2022-08-11T04:41:31;6.63;;;4.00;;
49858;SDS011;35756;52.346;13.622;2022-08-11T04:44:27;8.80;;;3.92;;
49858;SDS011;35756;52.346;13.622;2022-08-11T04:53:41;7.35;;;3.90;;
49858;SDS011;35756;52.346;13.622;2022-08-11T04:56:33;8.35;;;4.20;;
49858;SDS011;35756;52.346;13.622;2022-08-11T04:59:26;7.15;;;4.32;;
49858;SDS011;35756;52.346;13.622;2022-08-11T05:02:47;6.25;;;4.38;;
49858;SDS011;35756;52.346;13.622;2022-08-11T05:14:28;6.30;;;4.72;;
49858;SDS011;35756;52.346;13.622;2022-08-11T05:17:21;5.88;;;4.68;;
49858;SDS011;35756;52.346;13.622;2022-08-11T05:20:08;6.53;;;4.78;;
49858;SDS011;35756;52.346;13.622;2022-08-11T05:22:54;6.70;;;4.90;;
49858;SDS011;35756;52.346;13.622;2022-08-11T05:25:41;7.00;;;4.68;;
49858;SDS011;35756;52.346;13.622;2022-08-11T05:31:15;6.97;;;5.20;;
49858;SDS011;35756;52.346;13.622;2022-08-11T05:34:02;6.88;;;5.40;;
49858;SDS011;35756;52.346;13.622;2022-08-11T05:36:53;7.10;;;5.50;;
49858;SDS011;35756;52.346;13.622;2022-08-11T05:39:22;6.75;;;5.60;;
49858;SDS011;35756;52.346;13.622;2022-08-11T05:42:07;7.90;;;5.30;;
49858;SDS011;35756;52.346;13.622;2022-08-11T05:44:56;9.23;;;5.38;;
49858;SDS011;35756;52.346;13.622;2022-08-11T05:47:47;9.32;;;5.32;;
49858;SDS011;35756;52.346;13.622;2022-08-11T05:50:32;7.45;;;5.18;;
49858;SDS011;35756;52.346;13.622;2022-08-11T05:53:17;11.02;;;5.50;;
49858;SDS011;35756;52.346;13.622;2022-08-11T05:56:03;7.72;;;4.93;;
49858;SDS011;35756;52.346;13.622;2022-08-11T05:58:51;7.40;;;5.15;;
49858;SDS011;35756;52.346;13.622;2022-08-11T06:01:26;6.70;;;4.75;;
49858;SDS011;35756;52.346;13.622;2022-08-11T06:03:53;6.88;;;4.90;;
49858;SDS011;35756;52.346;13.622;2022-08-11T06:06:48;5.60;;;4.70;;
49858;SDS011;35756;52.346;13.622;2022-08-11T06:12:07;7.55;;;5.00;;
49858;SDS011;35756;52.346;13.622;2022-08-11T06:14:41;6.68;;;4.78;;
49858;SDS011;35756;52.346;13.622;2022-08-11T06:17:07;9.30;;;4.90;;
49858;SDS011;35756;52.346;13.622;2022-08-11T06:19:42;9.63;;;4.95;;
49858;SDS011;35756;52.346;13.622;2022-08-11T06:22:11;6.88;;;4.50;;
49858;SDS011;35756;52.346;13.622;2022-08-11T06:24:38;6.05;;;4.78;;
49858;SDS011;35756;52.346;13.622;2022-08-11T06:27:04;8.93;;;4.57;;
49858;SDS011;35756;52.346;13.622;2022-08-11T06:29:31;7.45;;;4.45;;
49858;SDS011;35756;52.346;13.622;2022-08-11T06:31:59;7.05;;;4.45;;
49858;SDS011;35756;52.346;13.622;2022-08-11T06:40:11;6.82;;;4.35;;
49858;SDS011;35756;52.346;13.622;2022-08-11T06:45:45;7.15;;;4.40;;
49858;SDS011;35756;52.346;13.622;2022-08-11T06:48:16;5.80;;;4.00;;
49858;SDS011;35756;52.346;13.622;2022-08-11T06:50:47;6.07;;;4.10;;
49858;SDS011;35756;52.346;13.622;2022-08-11T06:53:32;7.90;;;4.70;;
49858;SDS011;35756;52.346;13.622;2022-08-11T06:55:58;7.72;;;4.43;;
49858;SDS011;35756;52.346;13.622;2022-08-11T06:58:42;7.35;;;4.53;;
49858;SDS011;35756;52.346;13.622;2022-08-11T07:01:28;6.05;;;4.60;;
49858;SDS011;35756;52.346;13.622;2022-08-11T07:04:10;7.90;;;4.55;;
49858;SDS011;35756;52.346;13.622;2022-08-11T07:06:45;7.20;;;4.15;;
49858;SDS011;35756;52.346;13.622;2022-08-11T07:09:55;6.25;;;4.40;;
49858;SDS011;35756;52.346;13.622;2022-08-11T07:12:50;7.95;;;5.03;;
49858;SDS011;35756;52.346;13.622;2022-08-11T07:15:36;6.20;;;4.18;;
49858;SDS011;35756;52.346;13.622;2022-08-11T07:18:05;5.63;;;4.18;;
49858;SDS011;35756;52.346;13.622;2022-08-11T07:20:50;9.82;;;4.82;;
49858;SDS011;35756;52.346;13.622;2022-08-11T07:23:35;6.63;;;4.43;;
49858;SDS011;35756;52.346;13.622;2022-08-11T07:26:21;6.20;;;4.18;;
49858;SDS011;35756;52.346;13.622;2022-08-11T07:29:08;8.80;;;4.55;;
49858;SDS011;35756;52.346;13.622;2022-08-11T07:31:36;9.48;;;4.45;;
49858;SDS011;35756;52.346;13.622;2022-08-11T07:34:14;6.35;;;4.50;;
49858;SDS011;35756;52.346;13.622;2022-08-11T07:36:45;7.05;;;4.55;;
49858;SDS011;35756;52.346;13.622;2022-08-11T07:39:15;6.95;;;4.30;;
49858;SDS011;35756;52.346;13.622;2022-08-11T07:41:45;5.68;;;4.47;;
49858;SDS011;35756;52.346;13.622;2022-08-11T07:44:11;9.15;;;4.05;;
49858;SDS011;35756;52.346;13.622;2022-08-11T07:46:40;9.65;;;4.50;;
49858;SDS011;35756;52.346;13.622;2022-08-11T07:49:25;6.40;;;4.43;;
49858;SDS011;35756;52.346;13.622;2022-08-11T07:52:09;7.47;;;4.20;;
49858;SDS011;35756;52.346;13.622;2022-08-11T07:54:54;6.60;;;4.15;;
49858;SDS011;35756;52.346;13.622;2022-08-11T07:57:20;6.43;;;4.07;;
49858;SDS011;35756;52.346;13.622;2022-08-11T08:00:04;8.60;;;4.00;;
49858;SDS011;35756;52.346;13.622;2022-08-11T08:02:48;7.47;;;4.10;;
49858;SDS011;35756;52.346;13.622;2022-08-11T08:05:32;5.97;;;3.95;;
49858;SDS011;35756;52.346;13.622;2022-08-11T08:08:17;7.38;;;4.38;;
49858;SDS011;35756;52.346;13.622;2022-08-11T08:11:02;5.90;;;4.00;;
49858;SDS011;35756;52.346;13.622;2022-08-11T08:13:46;4.45;;;3.90;;
49858;SDS011;35756;52.346;13.622;2022-08-11T08:16:30;7.03;;;3.70;;
49858;SDS011;35756;52.346;13.622;2022-08-11T08:19:15;6.85;;;3.90;;
49858;SDS011;35756;52.346;13.622;2022-08-11T08:21:41;7.80;;;3.80;;
49858;SDS011;35756;52.346;13.622;2022-08-11T08:24:07;7.25;;;3.85;;
49858;SDS011;35756;52.346;13.622;2022-08-11T08:26:34;5.97;;;3.70;;
49858;SDS011;35756;52.346;13.622;2022-08-11T08:29:17;7.75;;;4.10;;
49858;SDS011;35756;52.346;13.622;2022-08-11T08:32:02;5.63;;;3.80;;
49858;SDS011;35756;52.346;13.622;2022-08-11T08:34:28;5.18;;;3.45;;
49858;SDS011;35756;52.346;13.622;2022-08-11T08:36:53;8.50;;;4.15;;
49858;SDS011;35756;52.346;13.622;2022-08-11T08:39:19;6.32;;;3.65;;
49858;SDS011;35756;52.346;13.622;2022-08-11T08:41:45;4.60;;;3.40;;
49858;SDS011;35756;52.346;13.622;2022-08-11T08:44:14;5.13;;;3.08;;
49858;SDS011;35756;52.346;13.622;2022-08-11T08:46:42;6.95;;;3.50;;
49858;SDS011;35756;52.346;13.622;2022-08-11T08:49:09;4.50;;;3.10;;
49858;SDS011;35756;52.346;13.622;2022-08-11T08:51:39;5.90;;;3.67;;
49858;SDS011;35756;52.346;13.622;2022-08-11T08:56:39;5.03;;;3.15;;
49858;SDS011;35756;52.346;13.622;2022-08-11T08:59:04;5.57;;;3.50;;
49858;SDS011;35756;52.346;13.622;2022-08-11T09:01:32;6.03;;;3.00;;
49858;SDS011;35756;52.346;13.622;2022-08-11T09:04:00;4.00;;;3.20;;
49858;SDS011;35756;52.346;13.622;2022-08-11T09:06:29;6.47;;;3.20;;
49858;SDS011;35756;52.346;13.622;2022-08-11T09:08:55;7.32;;;3.47;;
49858;SDS011;35756;52.346;13.622;2022-08-11T09:11:21;5.35;;;3.17;;
49858;SDS011;35756;52.346;13.622;2022-08-11T09:14:05;4.30;;;3.05;;
49858;SDS011;35756;52.346;13.622;2022-08-11T09:16:30;4.72;;;3.25;;
49858;SDS011;35756;52.346;13.622;2022-08-11T09:18:56;5.93;;;3.55;;
49858;SDS011;35756;52.346;13.622;2022-08-11T09:21:24;5.45;;;3.45;;
49858;SDS011;35756;52.346;13.622;2022-08-11T09:23:50;4.15;;;2.95;;
49858;SDS011;35756;52.346;13.622;2022-08-11T09:26:34;5.82;;;3.25;;
49858;SDS011;35756;52.346;13.622;2022-08-11T09:29:30;6.00;;;3.28;;
49858;SDS011;35756;52.346;13.622;2022-08-11T09:31:55;4.22;;;2.88;;
49858;SDS011;35756;52.346;13.622;2022-08-11T09:34:22;4.65;;;3.45;;
49858;SDS011;35756;52.346;13.622;2022-08-11T09:36:49;4.50;;;3.30;;
49858;SDS011;35756;52.346;13.622;2022-08-11T09:39:35;7.68;;;3.17;;
49858;SDS011;35756;52.346;13.622;2022-08-11T09:42:20;4.45;;;2.92;;
49858;SDS011;35756;52.346;13.622;2022-08-11T09:44:46;4.10;;;2.83;;
49858;SDS011;35756;52.346;13.622;2022-08-11T09:47:19;3.97;;;2.95;;
49858;SDS011;35756;52.346;13.622;2022-08-11T09:49:46;4.25;;;3.25;;
49858;SDS011;35756;52.346;13.622;2022-08-11T09:52:13;4.53;;;3.30;;
49858;SDS011;35756;52.346;13.622;2022-08-11T09:54:41;5.07;;;3.08;;
49858;SDS011;35756;52.346;13.622;2022-08-11T09:57:08;4.38;;;3.10;;
49858;SDS011;35756;52.346;13.622;2022-08-11T09:59:52;4.60;;;3.08;;
49858;SDS011;35756;52.346;13.622;2022-08-11T10:02:18;6.82;;;3.28;;
49858;SDS011;35756;52.346;13.622;2022-08-11T10:04:47;5.72;;;3.10;;
49858;SDS011;35756;52.346;13.622;2022-08-11T10:07:15;5.57;;;2.80;;
49858;SDS011;35756;52.346;13.622;2022-08-11T10:12:19;6.28;;;2.85;;
49858;SDS011;35756;52.346;13.622;2022-08-11T10:14:47;5.70;;;3.10;;
49858;SDS011;35756;52.346;13.622;2022-08-11T10:17:36;4.85;;;3.40;;
49858;SDS011;35756;52.346;13.622;2022-08-11T10:20:25;4.30;;;2.85;;
49858;SDS011;35756;52.346;13.622;2022-08-11T10:22:50;4.93;;;2.90;;
49858;SDS011;35756;52.346;13.622;2022-08-11T10:25:34;5.20;;;3.03;;
49858;SDS011;35756;52.346;13.622;2022-08-11T10:28:19;4.10;;;3.10;;
49858;SDS011;35756;52.346;13.622;2022-08-11T10:30:45;3.97;;;3.05;;
49858;SDS011;35756;52.346;13.622;2022-08-11T10:33:29;3.60;;;2.75;;
49858;SDS011;35756;52.346;13.622;2022-08-11T10:36:13;3.92;;;3.13;;
49858;SDS011;35756;52.346;13.622;2022-08-11T10:38:41;5.85;;;2.90;;
49858;SDS011;35756;52.346;13.622;2022-08-11T10:41:09;5.78;;;3.50;;
49858;SDS011;35756;52.346;13.622;2022-08-11T10:43:53;4.55;;;3.28;;
49858;SDS011;35756;52.346;13.622;2022-08-11T10:46:18;4.63;;;3.33;;
49858;SDS011;35756;52.346;13.622;2022-08-11T10:49:03;4.07;;;3.28;;
49858;SDS011;35756;52.346;13.622;2022-08-11T10:51:28;6.90;;;3.17;;
49858;SDS011;35756;52.346;13.622;2022-08-11T10:54:13;6.78;;;3.40;;
49858;SDS011;35756;52.346;13.622;2022-08-11T10:56:57;4.88;;;3.15;;
49858;SDS011;35756;52.346;13.622;2022-08-11T10:59:43;5.88;;;3.00;;
49858;SDS011;35756;52.346;13.622;2022-08-11T11:02:12;4.30;;;2.95;;
49858;SDS011;35756;52.346;13.622;2022-08-11T11:04:43;5.90;;;3.00;;
49858;SDS011;35756;52.346;13.622;2022-08-11T11:07:22;4.88;;;3.03;;
49858;SDS011;35756;52.346;13.622;2022-08-11T11:09:57;7.15;;;3.10;;
49858;SDS011;35756;52.346;13.622;2022-08-11T11:12:28;4.43;;;3.30;;
49858;SDS011;35756;52.346;13.622;2022-08-11T11:15:15;5.13;;;3.20;;
49858;SDS011;35756;52.346;13.622;2022-08-11T11:18:10;5.57;;;3.15;;
49858;SDS011;35756;52.346;13.622;2022-08-11T11:20:50;4.88;;;3.05;;
49858;SDS011;35756;52.346;13.622;2022-08-11T11:23:37;4.20;;;3.33;;
49858;SDS011;35756;52.346;13.622;2022-08-11T11:26:23;6.53;;;3.47;;
49858;SDS011;35756;52.346;13.622;2022-08-11T11:37:39;4.80;;;2.90;;
49858;SDS011;35756;52.346;13.622;2022-08-11T11:40:18;4.93;;;3.25;;
49858;SDS011;35756;52.346;13.622;2022-08-11T11:42:47;7.57;;;3.38;;
49858;SDS011;35756;52.346;13.622;2022-08-11T11:45:14;4.70;;;2.83;;
49858;SDS011;35756;52.346;13.622;2022-08-11T11:47:41;3.78;;;3.38;;
49858;SDS011;35756;52.346;13.622;2022-08-11T11:50:08;3.92;;;3.25;;
49858;SDS011;35756;52.346;13.622;2022-08-11T11:52:34;4.10;;;2.97;;
49858;SDS011;35756;52.346;13.622;2022-08-11T11:54:59;4.38;;;3.25;;
49858;SDS011;35756;52.346;13.622;2022-08-11T11:57:26;4.18;;;2.92;;
49858;SDS011;35756;52.346;13.622;2022-08-11T12:00:11;3.47;;;2.60;;
49858;SDS011;35756;52.346;13.622;2022-08-11T12:02:56;7.22;;;2.88;;
49858;SDS011;35756;52.346;13.622;2022-08-11T12:05:23;4.57;;;2.80;;
49858;SDS011;35756;52.346;13.622;2022-08-11T12:07:49;3.28;;;2.60;;
49858;SDS011;35756;52.346;13.622;2022-08-11T12:10:40;4.07;;;2.42;;
49858;SDS011;35756;52.346;13.622;2022-08-11T12:13:14;5.25;;;3.03;;
49858;SDS011;35756;52.346;13.622;2022-08-11T12:15:59;4.05;;;2.85;;
49858;SDS011;35756;52.346;13.622;2022-08-11T12:18:27;6.03;;;2.55;;
49858;SDS011;35756;52.346;13.622;2022-08-11T12:20:56;4.00;;;2.50;;
49858;SDS011;35756;52.346;13.622;2022-08-11T12:23:23;5.13;;;2.55;;
49858;SDS011;35756;52.346;13.622;2022-08-11T12:26:06;3.45;;;2.58;;
49858;SDS011;35756;52.346;13.622;2022-08-11T12:28:50;4.28;;;2.47;;
49858;SDS011;35756;52.346;13.622;2022-08-11T12:31:16;3.30;;;2.47;;
49858;SDS011;35756;52.346;13.622;2022-08-11T12:33:41;3.70;;;2.20;;
49858;SDS011;35756;52.346;13.622;2022-08-11T12:36:08;2.97;;;2.40;;
49858;SDS011;35756;52.346;13.622;2022-08-11T12:38:40;3.92;;;2.30;;
49858;SDS011;35756;52.346;13.622;2022-08-11T12:41:06;4.15;;;2.03;;
49858;SDS011;35756;52.346;13.622;2022-08-11T12:43:50;7.05;;;2.33;;
49858;SDS011;35756;52.346;13.622;2022-08-11T12:46:34;2.78;;;2.30;;
49858;SDS011;35756;52.346;13.622;2022-08-11T12:49:06;4.10;;;2.20;;
49858;SDS011;35756;52.346;13.622;2022-08-11T12:51:55;3.88;;;2.92;;
49858;SDS011;35756;52.346;13.622;2022-08-11T12:54:27;3.67;;;2.55;;
49858;SDS011;35756;52.346;13.622;2022-08-11T12:57:00;4.80;;;2.50;;
49858;SDS011;35756;52.346;13.622;2022-08-11T12:59:46;4.57;;;2.00;;
49858;SDS011;35756;52.346;13.622;2022-08-11T13:02:30;3.42;;;2.13;;
49858;SDS011;35756;52.346;13.622;2022-08-11T13:05:15;3.75;;;2.03;;
49858;SDS011;35756;52.346;13.622;2022-08-11T13:07:41;3.30;;;2.25;;
49858;SDS011;35756;52.346;13.622;2022-08-11T13:10:07;4.55;;;2.08;;
49858;SDS011;35756;52.346;13.622;2022-08-11T13:12:34;4.15;;;2.00;;
49858;SDS011;35756;52.346;13.622;2022-08-11T13:15:15;4.22;;;2.17;;
49858;SDS011;35756;52.346;13.622;2022-08-11T13:17:42;8.55;;;2.47;;
49858;SDS011;35756;52.346;13.622;2022-08-11T13:20:09;3.28;;;2.50;;
49858;SDS011;35756;52.346;13.622;2022-08-11T13:22:36;4.22;;;2.15;;
49858;SDS011;35756;52.346;13.622;2022-08-11T13:25:02;3.10;;;2.20;;
49858;SDS011;35756;52.346;13.622;2022-08-11T13:27:28;3.17;;;2.00;;
49858;SDS011;35756;52.346;13.622;2022-08-11T13:29:54;3.55;;;2.05;;
49858;SDS011;35756;52.346;13.622;2022-08-11T13:32:39;2.90;;;1.92;;
49858;SDS011;35756;52.346;13.622;2022-08-11T13:35:06;3.50;;;1.92;;
49858;SDS011;35756;52.346;13.622;2022-08-11T13:37:32;3.75;;;1.90;;
49858;SDS011;35756;52.346;13.622;2022-08-11T13:39:59;4.82;;;2.10;;
49858;SDS011;35756;52.346;13.622;2022-08-11T13:42:25;4.18;;;1.98;;
49858;SDS011;35756;52.346;13.622;2022-08-11T13:44:51;3.72;;;2.10;;
49858;SDS011;35756;52.346;13.622;2022-08-11T13:47:16;3.00;;;2.05;;
49858;SDS011;35756;52.346;13.622;2022-08-11T13:49:46;2.75;;;2.00;;
49858;SDS011;35756;52.346;13.622;2022-08-11T13:52:12;2.92;;;1.90;;
49858;SDS011;35756;52.346;13.622;2022-08-11T13:54:40;4.85;;;1.80;;
49858;SDS011;35756;52.346;13.622;2022-08-11T13:57:07;3.15;;;1.83;;
49858;SDS011;35756;52.346;13.622;2022-08-11T13:59:33;4.50;;;2.40;;
49858;SDS011;35756;52.346;13.622;2022-08-11T14:02:00;3.50;;;1.90;;
49858;SDS011;35756;52.346;13.622;2022-08-11T14:07:05;7.85;;;2.10;;
49858;SDS011;35756;52.346;13.622;2022-08-11T14:09:34;5.05;;;2.40;;
49858;SDS011;35756;52.346;13.622;2022-08-11T14:14:58;4.70;;;1.67;;
49858;SDS011;35756;52.346;13.622;2022-08-11T14:17:25;2.72;;;1.80;;
49858;SDS011;35756;52.346;13.622;2022-08-11T14:19:56;3.17;;;1.90;;
49858;SDS011;35756;52.346;13.622;2022-08-11T14:22:23;2.55;;;1.85;;
49858;SDS011;35756;52.346;13.622;2022-08-11T14:24:48;4.93;;;2.00;;
49858;SDS011;35756;52.346;13.622;2022-08-11T14:27:14;3.50;;;1.90;;
49858;SDS011;35756;52.346;13.622;2022-08-11T14:29:41;2.92;;;2.10;;
49858;SDS011;35756;52.346;13.622;2022-08-11T14:32:08;5.18;;;1.90;;
49858;SDS011;35756;52.346;13.622;2022-08-11T14:34:35;4.75;;;1.95;;
49858;SDS011;35756;52.346;13.622;2022-08-11T14:37:10;5.40;;;2.10;;
49858;SDS011;35756;52.346;13.622;2022-08-11T14:39:40;3.63;;;2.03;;
49858;SDS011;35756;52.346;13.622;2022-08-11T14:42:07;4.20;;;1.90;;
49858;SDS011;35756;52.346;13.622;2022-08-11T14:44:55;4.28;;;2.20;;
49858;SDS011;35756;52.346;13.622;2022-08-11T14:47:47;2.95;;;2.10;;
49858;SDS011;35756;52.346;13.622;2022-08-11T14:50:15;3.55;;;2.10;;
49858;SDS011;35756;52.346;13.622;2022-08-11T14:52:53;6.28;;;2.22;;
49858;SDS011;35756;52.346;13.622;2022-08-11T14:55:21;2.88;;;2.10;;
49858;SDS011;35756;52.346;13.622;2022-08-11T14:58:07;6.80;;;2.17;;
49858;SDS011;35756;52.346;13.622;2022-08-11T15:00:33;2.80;;;1.80;;
49858;SDS011;35756;52.346;13.622;2022-08-11T15:02:59;3.58;;;2.05;;
49858;SDS011;35756;52.346;13.622;2022-08-11T15:05:34;2.90;;;1.75;;
49858;SDS011;35756;52.346;13.622;2022-08-11T15:08:00;4.60;;;1.90;;
49858;SDS011;35756;52.346;13.622;2022-08-11T15:10:26;3.17;;;1.88;;
49858;SDS011;35756;52.346;13.622;2022-08-11T15:12:51;3.55;;;2.00;;
49858;SDS011;35756;52.346;13.622;2022-08-11T15:15:18;3.83;;;2.10;;
49858;SDS011;35756;52.346;13.622;2022-08-11T15:18:04;2.45;;;2.00;;
49858;SDS011;35756;52.346;13.622;2022-08-11T15:20:30;5.22;;;2.13;;
49858;SDS011;35756;52.346;13.622;2022-08-11T15:23:14;4.10;;;1.98;;
49858;SDS011;35756;52.346;13.622;2022-08-11T15:28:36;4.00;;;1.83;;
49858;SDS011;35756;52.346;13.622;2022-08-11T15:31:23;3.60;;;1.75;;
49858;SDS011;35756;52.346;13.622;2022-08-11T15:34:09;2.85;;;1.80;;
49858;SDS011;35756;52.346;13.622;2022-08-11T15:36:56;4.88;;;2.05;;
49858;SDS011;35756;52.346;13.622;2022-08-11T15:40:00;2.50;;;1.83;;
49858;SDS011;35756;52.346;13.622;2022-08-11T15:42:49;4.53;;;1.90;;
49858;SDS011;35756;52.346;13.622;2022-08-11T15:45:37;3.67;;;1.88;;
49858;SDS011;35756;52.346;13.622;2022-08-11T15:48:15;3.10;;;1.80;;
49858;SDS011;35756;52.346;13.622;2022-08-11T15:50:45;2.40;;;1.65;;
49858;SDS011;35756;52.346;13.622;2022-08-11T15:53:20;3.40;;;2.00;;
49858;SDS011;35756;52.346;13.622;2022-08-11T15:55:57;3.03;;;1.90;;
49858;SDS011;35756;52.346;13.622;2022-08-11T15:58:23;2.67;;;1.70;;
49858;SDS011;35756;52.346;13.622;2022-08-11T16:01:08;4.40;;;1.98;;
49858;SDS011;35756;52.346;13.622;2022-08-11T16:03:59;2.95;;;1.85;;
49858;SDS011;35756;52.346;13.622;2022-08-11T16:06:41;3.10;;;1.90;;
49858;SDS011;35756;52.346;13.622;2022-08-11T16:09:09;4.28;;;1.83;;
49858;SDS011;35756;52.346;13.622;2022-08-11T16:11:36;3.92;;;1.88;;
49858;SDS011;35756;52.346;13.622;2022-08-11T16:14:04;3.60;;;1.85;;
49858;SDS011;35756;52.346;13.622;2022-08-11T16:16:49;3.28;;;2.03;;
49858;SDS011;35756;52.346;13.622;2022-08-11T16:19:15;5.88;;;3.10;;
49858;SDS011;35756;52.346;13.622;2022-08-11T16:21:42;4.93;;;2.85;;
49858;SDS011;35756;52.346;13.622;2022-08-11T16:24:10;7.50;;;3.78;;
49858;SDS011;35756;52.346;13.622;2022-08-11T16:26:38;6.95;;;3.25;;
49858;SDS011;35756;52.346;13.622;2022-08-11T16:29:05;5.63;;;3.28;;
49858;SDS011;35756;52.346;13.622;2022-08-11T16:31:31;3.33;;;2.45;;
49858;SDS011;35756;52.346;13.622;2022-08-11T16:33:59;3.15;;;2.20;;
49858;SDS011;35756;52.346;13.622;2022-08-11T16:36:25;10.40;;;2.72;;
49858;SDS011;35756;52.346;13.622;2022-08-11T16:39:11;2.75;;;2.00;;
49858;SDS011;35756;52.346;13.622;2022-08-11T16:41:37;3.03;;;2.00;;
49858;SDS011;35756;52.346;13.622;2022-08-11T16:44:22;2.53;;;1.90;;
49858;SDS011;35756;52.346;13.622;2022-08-11T16:47:07;4.60;;;1.90;;
49858;SDS011;35756;52.346;13.622;2022-08-11T16:49:42;2.88;;;1.90;;
49858;SDS011;35756;52.346;13.622;2022-08-11T16:52:12;5.45;;;1.90;;
49858;SDS011;35756;52.346;13.622;2022-08-11T16:54:38;4.65;;;1.90;;
49858;SDS011;35756;52.346;13.622;2022-08-11T16:57:05;4.72;;;1.70;;
49858;SDS011;35756;52.346;13.622;2022-08-11T16:59:55;2.70;;;1.70;;
49858;SDS011;35756;52.346;13.622;2022-08-11T17:02:23;4.00;;;2.10;;
49858;SDS011;35756;52.346;13.622;2022-08-11T17:05:14;3.72;;;1.88;;
49858;SDS011;35756;52.346;13.622;2022-08-11T17:08:01;4.05;;;1.98;;
49858;SDS011;35756;52.346;13.622;2022-08-11T17:10:49;5.07;;;1.90;;
49858;SDS011;35756;52.346;13.622;2022-08-11T17:13:41;1.95;;;1.60;;
49858;SDS011;35756;52.346;13.622;2022-08-11T17:18:42;5.00;;;2.10;;
49858;SDS011;35756;52.346;13.622;2022-08-11T17:21:26;3.58;;;1.60;;
49858;SDS011;35756;52.346;13.622;2022-08-11T17:23:58;2.83;;;1.80;;
49858;SDS011;35756;52.346;13.622;2022-08-11T17:26:32;3.70;;;1.70;;
49858;SDS011;35756;52.346;13.622;2022-08-11T17:29:45;4.28;;;1.75;;
49858;SDS011;35756;52.346;13.622;2022-08-11T17:32:08;10.38;;;2.10;;
49858;SDS011;35756;52.346;13.622;2022-08-11T17:35:04;5.55;;;2.17;;
49858;SDS011;35756;52.346;13.622;2022-08-11T17:40:41;4.03;;;2.30;;
49858;SDS011;35756;52.346;13.622;2022-08-11T17:43:29;2.38;;;1.85;;
49858;SDS011;35756;52.346;13.622;2022-08-11T17:46:14;3.55;;;2.03;;
49858;SDS011;35756;52.346;13.622;2022-08-11T17:48:58;4.60;;;2.00;;
49858;SDS011;35756;52.346;13.622;2022-08-11T17:51:24;3.65;;;1.90;;
49858;SDS011;35756;52.346;13.622;2022-08-11T17:54:08;2.25;;;1.83;;
49858;SDS011;35756;52.346;13.622;2022-08-11T17:56:52;2.00;;;1.67;;
49858;SDS011;35756;52.346;13.622;2022-08-11T17:59:37;3.40;;;2.00;;
49858;SDS011;35756;52.346;13.622;2022-08-11T18:02:17;3.53;;;2.13;;
49858;SDS011;35756;52.346;13.622;2022-08-11T18:05:02;2.88;;;1.85;;
49858;SDS011;35756;52.346;13.622;2022-08-11T18:07:29;4.90;;;2.05;;
49858;SDS011;35756;52.346;13.622;2022-08-11T18:10:13;6.10;;;1.95;;
49858;SDS011;35756;52.346;13.622;2022-08-11T18:12:57;3.13;;;1.92;;
49858;SDS011;35756;52.346;13.622;2022-08-11T18:15:42;4.45;;;2.00;;